Terminal Aerodrome Forecast
Issued by NWS Birmingham, AL

Current Version | Previous Version | Text Only | Print | Product List | Glossary On
Versions: 1 2 3 4 5 6 7 8 9 10 11 12 13 14
757
FTUS44 KBMX 051120
TAFBHM
TAF
KBHM 051120Z 0512/0612 06006KT 2SM -DZ BR OVC003
     FM051700 07005KT 4SM RA BR OVC005
     FM060300 13008KT 4SM SHRA BR OVC004=

USA.gov is the U.S. government's official web portal to all federal, state and local government web resources and services.